RJDM(METAR)
10/16 18:00
METAR RJDM 160900Z 34006KT 9999 FEW040 SCT230 19/13 Q1021 RMK 1CU040
3CI230 A3016=
戻る
トップページへ戻る
IMOC Co,.Ltd.